地図

経路データ

SID SEASON NUMBER BASIN SUBBASIN NAME ISO_TIME NATURE LAT LON WMO_WIND WMO_PRES WMO_AGENCY TRACK_TYPE DIST2LAND LANDFALL IFLAG USA_AGENCY USA_ATCF_ID USA_LAT USA_LON USA_RECORD USA_STATUS USA_WIND USA_PRES USA_SSHS USA_R34_NE USA_R34_SE USA_R34_SW USA_R34_NW USA_R50_NE USA_R50_SE USA_R50_SW USA_R50_NW USA_R64_NE USA_R64_SE USA_R64_SW USA_R64_NW USA_POCI USA_ROCI USA_RMW USA_EYE TOKYO_LAT TOKYO_LON TOKYO_GRADE TOKYO_WIND TOKYO_PRES TOKYO_R50_DIR TOKYO_R50_LONG TOKYO_R50_SHORT TOKYO_R30_DIR TOKYO_R30_LONG TOKYO_R30_SHORT TOKYO_LAND CMA_LAT CMA_LON CMA_CAT CMA_WIND CMA_PRES HKO_LAT HKO_LON HKO_CAT HKO_WIND HKO_PRES NEWDELHI_LAT NEWDELHI_LON NEWDELHI_GRADE NEWDELHI_WIND NEWDELHI_PRES NEWDELHI_CI NEWDELHI_DP NEWDELHI_POCI REUNION_LAT REUNION_LON REUNION_TYPE REUNION_WIND REUNION_PRES REUNION_TNUM REUNION_CI REUNION_RMW REUNION_R34_NE REUNION_R34_SE REUNION_R34_SW REUNION_R34_NW REUNION_R50_NE REUNION_R50_SE REUNION_R50_SW REUNION_R50_NW REUNION_R64_NE REUNION_R64_SE REUNION_R64_SW REUNION_R64_NW BOM_LAT BOM_LON BOM_TYPE BOM_WIND BOM_PRES BOM_TNUM BOM_CI BOM_RMW BOM_R34_NE BOM_R34_SE BOM_R34_SW BOM_R34_NW BOM_R50_NE BOM_R50_SE BOM_R50_SW BOM_R50_NW BOM_R64_NE BOM_R64_SE BOM_R64_SW BOM_R64_NW BOM_ROCI BOM_POCI BOM_EYE BOM_POS_METHOD BOM_PRES_METHOD NADI_LAT NADI_LON NADI_CAT NADI_WIND NADI_PRES WELLINGTON_LAT WELLINGTON_LON WELLINGTON_WIND WELLINGTON_PRES DS824_LAT DS824_LON DS824_STAGE DS824_WIND DS824_PRES TD9636_LAT TD9636_LON TD9636_STAGE TD9636_WIND TD9636_PRES TD9635_LAT TD9635_LON TD9635_WIND TD9635_PRES TD9635_ROCI NEUMANN_LAT NEUMANN_LON NEUMANN_CLASS NEUMANN_WIND NEUMANN_PRES MLC_LAT MLC_LON MLC_CLASS MLC_WIND MLC_PRES USA_GUST BOM_GUST BOM_GUST_PER REUNION_GUST REUNION_GUST_PER USA_SEAHGT USA_SEARAD_NE USA_SEARAD_SE USA_SEARAD_SW USA_SEARAD_NW STORM_SPEED STORM_DIR
1947017S10168 1947 5 SP MM NOT_NAMED 1947-01-17 00:00:00 TS -10.2000 167.600 main 515 500 O________OO___ jtwc_sh SH091947 -10.2000 167.600 -1 -10.2000 167.600 TC -10.2000 167.600 2 5 233
1947017S10168 1947 5 SP MM NOT_NAMED 1947-01-17 03:00:00 TS -10.3480 167.400 main 500 474 P________PP___ SH091947 -10.3500 167.400 -1 -10.3500 167.400 TC -10.3438 167.400 2 5 233
1947017S10168 1947 5 SP MM NOT_NAMED 1947-01-17 06:00:00 TS -10.4967 167.200 main 474 461 O________OP___ jtwc_sh SH091947 -10.5000 167.200 -1 -10.5000 167.200 TC -10.4901 167.200 2 5 233
1947017S10168 1947 5 SP MM NOT_NAMED 1947-01-17 09:00:00 TS -10.6471 167.000 main 461 437 P________PP___ SH091947 -10.6500 167.000 -1 -10.6500 167.000 TC -10.6413 167.000 2 5 232
1947017S10168 1947 5 SP MM NOT_NAMED 1947-01-17 12:00:00 TS -10.8000 166.800 main 437 425 O________OO___ jtwc_sh SH091947 -10.8000 166.800 -1 -10.8000 166.800 TC -10.8000 166.800 2 5 232
1947017S10168 1947 5 SP MM NOT_NAMED 1947-01-17 15:00:00 TS -10.9509 166.600 main 414 403 P________PP___ SH091947 -10.9425 166.600 -1 -10.9425 166.600 TC -10.9678 166.600 2 5 231
1947017S10168 1947 5 SP MM NOT_NAMED 1947-01-17 18:00:00 TS -11.1142 166.400 main 403 382 O________OP___ jtwc_sh SH091947 -11.1000 166.400 -1 -11.1000 166.400 TC -11.1424 166.400 2 5 228
1947017S10168 1947 5 SP MM NOT_NAMED 1947-01-17 21:00:00 TS -11.3070 166.200 main 383 364 P________PP___ SH091947 -11.3000 166.200 -1 -11.3000 166.200 TC -11.3209 166.200 2 6 225
1947017S10168 1947 5 SP MM NOT_NAMED 1947-01-18 00:00:00 TS -11.5000 166.000 main 364 355 O________OO___ jtwc_sh SH091947 -11.5000 166.000 -1 -11.5000 166.000 TC -11.5000 166.000 2 5 228
1947017S10168 1947 5 SP MM NOT_NAMED 1947-01-18 03:00:00 TS -11.6583 165.801 main 346 339 P________PP___ SH091947 -11.6500 165.800 -1 -11.6500 165.800 TC -11.6749 165.804 2 5 231
1947017S10168 1947 5 SP MM NOT_NAMED 1947-01-18 06:00:00 TS -11.8166 165.602 main 342 324 O________OP___ jtwc_sh SH091947 -11.8000 165.600 -1 -11.8000 165.600 TC -11.8499 165.607 2 5 228
1947017S10168 1947 5 SP MM NOT_NAMED 1947-01-18 09:00:00 TS -12.0083 165.402 main 329 318 P________PP___ SH091947 -12.0000 165.400 -1 -12.0000 165.400 TC -12.0249 165.407 2 6 226
1947017S10168 1947 5 SP MM NOT_NAMED 1947-01-18 12:00:00 TS -12.2000 165.200 main 318 313 O________OO___ jtwc_sh SH091947 -12.2000 165.200 -1 -12.2000 165.200 TC -12.2000 165.200 2 5 228
1947017S10168 1947 5 SP MM NOT_NAMED 1947-01-18 15:00:00 TS -12.3556 165.004 main 310 307 P________PP___ SH091947 -12.3500 165.007 -1 -12.3500 165.007 TC -12.3667 164.998 2 5 232
1947017S10168 1947 5 SP MM NOT_NAMED 1947-01-18 18:00:00 TS -12.5116 164.796 main 313 311 O________OP___ jtwc_sh SH091947 -12.5000 164.800 -1 -12.5000 164.800 TC -12.5348 164.787 2 6 232
1947017S10168 1947 5 SP MM NOT_NAMED 1947-01-18 21:00:00 TS -12.6985 164.562 main 311 310 P________PP___ SH091947 -12.6925 164.565 -1 -12.6925 164.565 TC -12.7104 164.558 2 6 231
1947017S10168 1947 5 SP MM NOT_NAMED 1947-01-19 00:00:00 TS -12.9000 164.300 main 318 313 O________OO___ jtwc_sh SH091947 -12.9000 164.300 -1 -12.9000 164.300 TC -12.9000 164.300 2 7 233
1947017S10168 1947 5 SP MM NOT_NAMED 1947-01-19 03:00:00 TS -13.0999 164.009 main 317 310 P________PP___ SH091947 -13.0925 164.015 -1 -13.0925 164.015 TC -13.1148 163.996 2 7 235
1947017S10168 1947 5 SP MM NOT_NAMED 1947-01-19 06:00:00 TS -13.3142 163.688 main 318 318 O________OP___ jtwc_sh SH091947 -13.3000 163.700 -1 -13.3000 163.700 TC -13.3427 163.665 2 8 235
1947017S10168 1947 5 SP MM NOT_NAMED 1947-01-19 09:00:00 TS -13.5581 163.337 main 331 328 P________PP___ SH091947 -13.5500 163.343 -1 -13.5500 163.343 TC -13.5742 163.327 2 8 234
1947017S10168 1947 5 SP MM NOT_NAMED 1947-01-19 12:00:00 TS -13.8000 163.000 main 344 342 O________OO___ jtwc_sh SH091947 -13.8000 163.000 -1 -13.8000 163.000 TC -13.8000 163.000 2 7 233
1947017S10168 1947 5 SP MM NOT_NAMED 1947-01-19 15:00:00 TS -14.0032 162.733 main 360 360 P________PP___ SH091947 -14.0074 162.742 -1 -14.0074 162.742 TC -13.9948 162.714 2 6 232
1947017S10168 1947 5 SP MM NOT_NAMED 1947-01-19 18:00:00 TS -14.1949 162.481 main 381 380 O________OP___ jtwc_sh SH091947 -14.2000 162.500 -1 -14.2000 162.500 TC -14.1847 162.442 2 7 233
1947017S10168 1947 5 SP MM NOT_NAMED 1947-01-19 21:00:00 TS -14.3891 162.196 main 403 403 P________PP___ SH091947 -14.3925 162.207 -1 -14.3925 162.207 TC -14.3823 162.174 2 7 234
1947017S10168 1947 5 SP MM NOT_NAMED 1947-01-20 00:00:00 TS -14.6000 161.900 main 425 425 O________OO___ jtwc_sh SH091947 -14.6000 161.900 -1 -14.6000 161.900 TC -14.6000 161.900 2 7 232
1947017S10168 1947 5 SP MM NOT_NAMED 1947-01-20 03:00:00 TS -14.8411 161.598 main 448 448 P________PP___ SH091947 -14.8350 161.600 -1 -14.8350 161.600 TC -14.8535 161.595 2 8 240
1947017S10168 1947 5 SP MM NOT_NAMED 1947-01-20 05:00:00 TS -14.9388 161.281 1002 bom main 462 463 P_____O__PP___ SH091947 -15.0083 161.400 -1 -14.0000 159.900 1002 -15.0083 161.400 TC -15.0345 161.388 2 12 262
1947017S10168 1947 5 SP MM NOT_NAMED 1947-01-20 06:00:00 TS -14.9201 160.992 main 467 467 O_____P__OP___ jtwc_sh SH091947 -15.1000 161.300 -1 -14.1460 159.771 -15.1000 161.300 TC -15.1276 161.285 2 12 253
1947017S10168 1947 5 SP MM NOT_NAMED 1947-01-20 09:00:00 TS -15.1683 160.517 main 512 512 P_____P__PP___ SH091947 -15.4000 160.985 -1 -14.5864 159.390 -15.4000 160.985 TC -15.4129 160.983 2 10 238
1947017S10168 1947 5 SP MM NOT_NAMED 1947-01-20 12:00:00 TS -15.4593 160.083 main 557 557 O_____P__OO___ jtwc_sh SH091947 -15.7000 160.700 -1 -15.0368 159.024 -15.7000 160.700 TC -15.7000 160.700 2 9 230
1947017S10168 1947 5 SP EA NOT_NAMED 1947-01-20 15:00:00 TS -15.7716 159.769 main 600 600 P_____P__PP___ SH091947 -15.9499 160.492 -1 -15.5053 158.690 -15.9499 160.492 TC -15.9380 160.481 2 8 219
1947017S10168 1947 5 SP EA NOT_NAMED 1947-01-20 18:00:00 TS -16.1164 159.536 bom main 643 643 O_____O__OP___ jtwc_sh SH091947 -16.2000 160.300 -1 -16.0000 158.400 -16.2000 160.300 TC -16.1819 160.278 2 8 211
1947017S10168 1947 5 SP EA NOT_NAMED 1947-01-20 21:00:00 TS -16.4895 159.313 main 653 639 P_____P__PP___ SH091947 -16.4699 160.080 -1 -16.5257 158.165 -16.4699 160.080 TC -16.4598 160.062 2 9 209
1947017S10168 1947 5 SP EA NOT_NAMED 1947-01-21 00:00:00 TS -16.9090 159.081 main 641 633 O_____P__OO___ jtwc_sh SH091947 -16.8000 159.800 -1 -17.0733 157.986 -16.8000 159.800 TC -16.8000 159.800 2 10 208
1947017S10168 1947 5 SP EA NOT_NAMED 1947-01-21 03:00:00 TS -17.3853 158.807 main 636 630 P_____P__PP___ SH091947 -17.2125 159.422 -1 -17.6300 157.858 -17.2125 159.422 TC -17.2357 159.435 2 11 209
1947017S10168 1947 5 SP EA NOT_NAMED 1947-01-21 05:00:00 TS -17.7273 158.615 994 bom main 637 632 P_____O__PP___ SH091947 -17.5307 159.141 -1 -18.0000 157.800 994 -17.5307 159.141 TC -17.5622 159.164 2 12 208
1947017S10168 1947 5 SP EA NOT_NAMED 1947-01-21 06:00:00 TS -17.9026 158.522 main 637 632 O_____P__OP___ jtwc_sh SH091947 -17.7000 159.000 -1 -18.1800 157.788 -17.7000 159.000 TC -17.7331 159.023 2 12 205
1947017S10168 1947 5 SP EA NOT_NAMED 1947-01-21 09:00:00 TS -18.4416 158.260 main 634 633 P_____P__PP___ SH091947 -18.2425 158.585 -1 -18.7173 157.803 -18.2425 158.585 TC -18.2639 158.600 2 12 203
1947017S10168 1947 5 SP EA NOT_NAMED 1947-01-21 12:00:00 TS -18.9860 158.029 main 644 639 O_____P__OO___ jtwc_sh SH091947 -18.8000 158.200 -1 -19.2508 157.863 -18.8000 158.200 TC -18.8000 158.200 2 11 200
1947017S10168 1947 5 SP EA NOT_NAMED 1947-01-21 15:00:00 TS -19.5022 157.843 main 654 649 P_____P__PP___ SH091947 -19.3074 157.885 -1 -19.7803 157.930 -19.3074 157.885 TC -19.3037 157.858 2 11 198
1947017S10168 1947 5 SP EA NOT_NAMED 1947-01-21 18:00:00 TS -20.0106 157.669 main 658 645 O_____P__OP___ jtwc_sh SH091947 -19.8000 157.600 -1 -20.3058 157.966 -19.8000 157.600 TC -19.8071 157.547 2 11 199
1947017S10168 1947 5 SP EA NOT_NAMED 1947-01-21 21:00:00 TS -20.5194 157.476 main 645 621 P_____P__PP___ SH091947 -20.3000 157.292 -1 -20.8271 157.933 -20.3000 157.292 TC -20.3070 157.262 2 11 200
1947017S10168 1947 5 SP EA NOT_NAMED 1947-01-21 22:00:00 TS -20.6883 157.408 bom main 621 589 P_____O__PP___ SH091947 -20.4667 157.192 -1 -21.0000 157.900 -20.4667 157.192 TC -20.4722 157.172 2 11 201
1947017S10168 1947 5 SP EA NOT_NAMED 1947-01-22 00:00:00 TS -21.0252 157.267 main 589 535 O_____P__OO___ jtwc_sh SH091947 -20.8000 157.000 -1 -21.3452 157.795 -20.8000 157.000 TC -20.8000 157.000 2 11 202
1947017S10168 1947 5 SP EA NOT_NAMED 1947-01-22 03:00:00 TS -21.5266 157.051 main 535 489 P_____P__PP___ SH091947 -21.3075 156.735 -1 -21.8593 157.578 -21.3075 156.735 TC -21.2656 156.760 2 11 202
1947017S10168 1947 5 SP EA NOT_NAMED 1947-01-22 05:00:00 TS -21.8565 156.904 990 bom main 489 474 P_____O__PP___ SH091947 -21.6390 156.575 -1 -22.2000 157.400 990 4 -21.6390 156.575 TC -21.5727 156.613 2 11 202
1947017S10168 1947 5 SP EA NOT_NAMED 1947-01-22 06:00:00 TS -22.0198 156.829 main 474 422 O_____P__OP___ jtwc_sh SH091947 -21.8000 156.500 -1 -22.3721 157.303 -21.8000 156.500 TC -21.7271 156.541 2 11 204
1947017S10168 1947 5 SP EA NOT_NAMED 1947-01-22 09:00:00 TS -22.4920 156.593 main 422 373 P_____P__PP___ SH091947 -22.2349 156.292 -1 -22.8890 156.964 -22.2349 156.292 TC -22.2000 156.326 2 11 205
1947017S10168 1947 5 SP EA NOT_NAMED 1947-01-22 12:00:00 TS -22.9803 156.337 main 365 318 O_____P__OO___ jtwc_sh SH091947 -22.7000 156.100 -1 -23.4048 156.565 -22.7000 156.100 TC -22.7000 156.100 2 12 205
1947017S10168 1947 5 SP EA NOT_NAMED 1947-01-22 15:00:00 TS -23.5296 156.067 main 318 262 P_____P__PP___ SH091947 -23.2849 155.922 -1 -23.9172 156.123 -23.2849 155.922 TC -23.2741 155.875 2 12 205
1947017S10168 1947 5 SP EA NOT_NAMED 1947-01-22 18:00:00 TS -24.0936 155.762 main 262 206 O_____P__OP___ jtwc_sh SH091947 -23.9000 155.700 -1 -24.4238 155.655 -23.9000 155.700 TC -23.8715 155.631 2 13 209
1947017S10168 1947 5 SP EA NOT_NAMED 1947-01-22 21:00:00 TS -24.6388 155.404 main 206 161 P_____P__PP___ SH091947 -24.4799 155.395 -1 -24.9225 155.179 -24.4799 155.395 TC -24.4582 155.347 2 13 214
1947017S10168 1947 5 SP EA NOT_NAMED 1947-01-23 00:00:00 TS -25.1484 154.992 main 161 132 O_____P__OO___ jtwc_sh SH091947 -25.0000 155.000 -1 -25.4114 154.711 -25.0000 155.000 TC -25.0000 155.000 2 12 219
1947017S10168 1947 5 SP EA NOT_NAMED 1947-01-23 03:00:00 TS -25.5991 154.529 main 128 109 P_____P__PP___ SH091947 -25.4225 154.522 -1 -25.8888 154.270 -25.4225 154.522 TC -25.4587 154.564 2 12 224
1947017S10168 1947 5 SP EA NOT_NAMED 1947-01-23 05:00:00 TS -25.8802 154.204 990 bom main 109 99 P_____O__PP___ SH091947 -25.6745 154.174 -1 -26.2000 154.000 990 -25.6745 154.174 TC -25.7361 154.238 2 12 228
1947017S10168 1947 5 SP EA NOT_NAMED 1947-01-23 06:00:00 TS -26.0071 154.031 main 89 49 O_____P__OP___ jtwc_sh SH091947 -25.8000 154.000 -1 -26.3619 153.885 -25.8000 154.000 TC -25.8679 154.067 2 12 228
1947017S10168 1947 5 SP EA NOT_NAMED 1947-01-23 09:00:00 TS -26.4137 153.545 main 39 0 P_____P__PP___ SH091947 -26.2073 153.500 -1 -26.8353 153.551 -26.2073 153.500 TC -26.2430 153.536 2 12 228
1947017S10168 1947 5 SP EA NOT_NAMED 1947-01-23 12:00:00 TS -26.7927 153.063 main 0 0 O_____P__OO___ jtwc_sh SH091947 -26.6000 153.000 -1 -27.2690 153.216 -26.6000 153.000 TC -26.6000 153.000 2 11 230
1947017S10168 1947 5 SP EA NOT_NAMED 1947-01-23 13:00:00 TS -26.8906 152.898 bom main 0 0 P_____O__PP___ SH091947 -26.7223 152.833 -1 -27.4000 153.100 -26.7223 152.833 TC -26.7177 152.825 2 11 232
1947017S10168 1947 5 SP EA NOT_NAMED 1947-01-23 15:00:00 TS -27.1262 152.585 main 0 0 P_____P__PP___ SH091947 -26.9573 152.500 -1 -27.6376 152.857 -26.9573 152.500 TC -26.9524 152.481 2 11 228
1947017S10168 1947 5 SP EA NOT_NAMED 1947-01-23 18:00:00 TS -27.4975 152.140 main 0 0 O_____P__OP___ jtwc_sh SH091947 -27.3000 152.000 -1 -27.9396 152.470 -27.3000 152.000 TC -27.3032 151.980 2 11 226
1947017S10168 1947 5 SP EA NOT_NAMED 1947-01-23 21:00:00 TS -27.8651 151.722 main 0 0 P_____P__PP___ SH091947 -27.6479 151.501 -1 -28.1886 152.060 -27.6479 151.501 TC -27.6524 151.488 2 10 226
1947017S10168 1947 5 SP EA NOT_NAMED 1947-01-24 00:00:00 TS -28.1993 151.317 main 0 0 O_____P__OO___ jtwc_sh SH091947 -28.0000 151.000 -1 -28.3986 151.633 -28.0000 151.000 TC -28.0000 151.000 2 9 213
1947017S10168 1947 5 SP EA NOT_NAMED 1947-01-24 03:00:00 NR -28.5836 151.195 main 0 0 ______P_______ SH091947 -1 -28.5836 151.195 TC 2 7 216
1947017S10168 1947 5 SP EA NOT_NAMED 1947-01-24 05:00:00 NR -28.7000 150.900 1000 bom main 0 ______O_______ SH091947 -1 -28.7000 150.900 1000 TC 2 9 246

デジタル台風データ・検索

IBTrACS Databaseについて

本データベースは、米国NOAAが公開する1842年以降の世界の熱帯低気圧のベストトラックデータアーカイブInternational Best Track Archive for Climate Stewardship (IBTrACS)を、ウェブで閲覧しやすい形式に変換したものです。

最終更新日:2021-11-26